M I D A S
Marine Information and Data Acquisition System
Tripno 976 of the Zeeleeuw from 2005-10-21 06:37:41 to 2005-10-21 11:33:22
Back to CruiseResearch ActivitiesStationsMapUnderway DataData graphs

EquipmentUnitsComments
TimeDGPSUTC
LatitudeDGPSDM.mWGS84
LongitudeDGPSDM.mWGS84
SpeedMeteo Stationm/sRelative wind speed
DirectionMeteo StationdegRelative wind direction
TemperatureMeteo Stationdeg CelciusAir temperature
PressureMeteo StationPaAtmospheric pressure
HumidityMeteo Station%Relative humidity
Missing or incorrect values are displayed as -999
Metereological data collected by the RV Zeeleeuw from 2005-10-21 06:38:08 to 2005-10-21 11:34:33
Time Latitude Longitude Speed Direction Temperature Pressure Humidity
2005-10-21 06:39 51°13.615 2°56.039 -999 56 12.3 100080 100
2005-10-21 06:40 51°13.623 2°55.996 -999 36 12.3 100070 100
2005-10-21 06:41 51°13.65 2°55.928 -999 77 12.4 100070 100
2005-10-21 06:42 51°13.691 2°55.821 -999 86 12.4 100070 100
2005-10-21 06:43 51°13.703 2°55.759 -999 108 12.4 100070 100
2005-10-21 06:44 51°13.695 2°55.741 -999 137 12.4 100070 100
2005-10-21 06:45 51°13.733 2°55.71 -999 192 12.5 100070 100
2005-10-21 06:46 51°13.856 2°55.611 -999 149 12.5 100010 100
2005-10-21 06:47 51°14.005 2°55.508 -999 105 12.5 100010 100
2005-10-21 06:48 51°14.163 2°55.383 -999 258 12.6 100000 100
2005-10-21 06:49 51°14.306 2°55.169 -999 320 12.6 100060 100
2005-10-21 06:50 51°14.391 2°54.854 -999 40 12.6 100060 100
2005-10-21 06:51 51°14.453 2°54.502 -999 315 12.6 100040 100
2005-10-21 06:52 51°14.48 2°54.141 -999 228 12.7 100050 100
2005-10-21 06:53 51°14.391 2°53.812 -999 328 12.7 100030 100
2005-10-21 06:54 51°14.252 2°53.529 -999 336 12.8 100030 100
2005-10-21 06:55 51°14.071 2°53.313 -999 346 12.8 100030 100
2005-10-21 06:56 51°13.871 2°53.152 -999 351 12.8 100040 100
2005-10-21 06:57 51°13.691 2°52.936 -999 334 12.8 100040 100
2005-10-21 06:58 51°13.568 2°52.625 -999 327 12.7 100040 100
2005-10-21 06:59 51°13.448 2°52.307 -999 323 12.7 100030 100
2005-10-21 07:00 51°13.338 2°51.981 -999 326 12.7 100040 100
2005-10-21 07:01 51°13.228 2°51.658 -999 329 12.7 100050 100
2005-10-21 07:02 51°13.118 2°51.338 -999 328 12.7 100040 100
2005-10-21 07:03 51°13.006 2°51.014 -999 333 12.7 100050 100
2005-10-21 07:04 51°12.895 2°50.697 -999 333 12.7 100050 100
2005-10-21 07:05 51°12.787 2°50.373 -999 327 12.7 100050 100
2005-10-21 07:06 51°12.679 2°50.048 -999 322 12.7 100050 100
2005-10-21 07:07 51°12.572 2°49.722 -999 329 12.7 100040 100
2005-10-21 07:08 51°12.464 2°49.396 -999 327 12.7 100030 100
2005-10-21 07:09 51°12.357 2°49.069 -999 326 12.8 100040 100
2005-10-21 07:10 51°12.248 2°48.742 -999 327 12.8 100030 100
2005-10-21 07:11 51°12.139 2°48.415 -999 333 12.8 100030 100
2005-10-21 07:12 51°12.031 2°48.086 -999 330 12.9 100030 100
2005-10-21 07:13 51°11.931 2°47.75 -999 328 12.9 100020 100
2005-10-21 07:14 51°11.831 2°47.414 -999 330 12.9 100020 100
2005-10-21 07:15 51°11.736 2°47.075 -999 320 12.9 100020 100
2005-10-21 07:16 51°11.649 2°46.729 -999 328 13 100030 100
2005-10-21 07:17 51°11.564 2°46.38 -999 320 12.9 100030 100
2005-10-21 07:18 51°11.479 2°46.032 -999 327 12.9 100030 100
2005-10-21 07:19 51°11.408 2°45.675 -999 321 13 100030 100
2005-10-21 07:20 51°11.337 2°45.317 -999 322 13 100030 100
2005-10-21 07:21 51°11.266 2°44.959 -999 324 13 100020 100
2005-10-21 07:22 51°11.199 2°44.6 -999 318 13 100010 100
2005-10-21 07:23 51°11.138 2°44.237 -999 40 13 100020 100
2005-10-21 07:24 51°11.077 2°43.875 -999 320 13 100010 100
2005-10-21 07:25 51°11.016 2°43.513 -999 313 13 100010 100
2005-10-21 07:26 51°10.956 2°43.151 -999 228 13 100000 100
2005-10-21 07:27 51°10.895 2°42.79 -999 40 13.1 100000 100
2005-10-21 07:28 51°10.835 2°42.428 -999 227 13.1 100000 100
2005-10-21 07:29 51°10.776 2°42.066 -999 229 13.1 100000 100
2005-10-21 07:30 51°10.716 2°41.703 -999 229 13.1 100000 100
2005-10-21 07:31 51°10.658 2°41.338 -999 315 13.1 99990 100
2005-10-21 07:32 51°10.599 2°40.974 -999 309 13.1 99990 100
2005-10-21 07:33 51°10.54 2°40.609 -999 313 13.1 99980 100
2005-10-21 07:34 51°10.483 2°40.243 -999 310 13.1 99980 100
2005-10-21 07:35 51°10.425 2°39.876 -999 313 13.1 99980 100
2005-10-21 07:36 51°10.369 2°39.509 -999 307 13.2 99980 100
2005-10-21 07:37 51°10.312 2°39.142 -999 312 13.1 99970 100
2005-10-21 07:38 51°10.255 2°38.775 -999 306 13.2 99970 100
2005-10-21 07:39 51°10.198 2°38.408 -999 313 13.2 99970 100
2005-10-21 07:40 51°10.142 2°38.041 -999 309 13.2 99970 100
2005-10-21 07:41 51°10.085 2°37.675 -999 310 13.2 99970 100
2005-10-21 07:42 51°10.029 2°37.31 -999 314 13.2 99970 100
2005-10-21 07:43 51°9.984 2°36.94 -999 304 13.3 99970 100
2005-10-21 07:44 51°9.984 2°36.562 -999 300 13.3 99970 100
2005-10-21 07:45 51°9.995 2°36.185 -999 303 13.4 99970 100
2005-10-21 07:46 51°10.056 2°35.834 -999 256 13.3 99970 100
2005-10-21 07:47 51°10.249 2°35.757 -999 105 13.4 99980 100
2005-10-21 07:48 51°10.416 2°35.932 -999 91 13.4 99980 100
2005-10-21 07:49 51°10.584 2°36.114 -999 98 13.5 99980 100
2005-10-21 07:50 51°10.759 2°36.285 -999 98 13.5 99970 100
2005-10-21 07:51 51°10.935 2°36.454 -999 83 13.5 99980 100
2005-10-21 07:52 51°11.111 2°36.621 -999 97 13.6 99980 100
2005-10-21 07:53 51°11.286 2°36.789 -999 90 13.6 99970 100
2005-10-21 07:54 51°11.462 2°36.954 -999 93 13.5 99980 100
2005-10-21 07:55 51°11.639 2°37.118 -999 93 13.6 99980 100
2005-10-21 07:56 51°11.814 2°37.28 -999 97 13.5 99960 100
2005-10-21 07:57 51°11.99 2°37.443 -999 90 13.6 99970 100
2005-10-21 07:58 51°12.165 2°37.607 -999 88 13.6 99970 100
2005-10-21 07:59 51°12.341 2°37.769 -999 89 13.6 99960 100
2005-10-21 08:00 51°12.516 2°37.931 -999 94 13.6 99960 100
2005-10-21 08:01 51°12.693 2°38.095 -999 87 13.6 99960 100
2005-10-21 08:02 51°12.876 2°38.237 -999 100 13.6 99960 100
2005-10-21 08:03 51°13.062 2°38.376 -999 106 13.6 99960 100
2005-10-21 08:04 51°13.249 2°38.516 -999 100 13.6 99960 100
2005-10-21 08:05 51°13.438 2°38.647 -999 104 13.6 99960 100
2005-10-21 08:06 51°13.63 2°38.768 -999 107 13.6 99960 100
2005-10-21 08:07 51°13.836 2°38.822 -999 119 13.6 99970 100
2005-10-21 08:08 51°14.046 2°38.81 -999 237 13.7 99960 100
2005-10-21 08:09 51°14.207 2°38.584 -999 286 13.7 99960 100
2005-10-21 08:10 51°14.212 2°38.224 -999 305 13.7 99920 100
2005-10-21 08:11 51°14.133 2°37.878 -999 320 13.7 99910 100
2005-10-21 08:12 51°14.02 2°37.549 -999 315 13.7 99900 100
2005-10-21 08:13 51°13.92 2°37.209 -999 318 13.8 99900 100
2005-10-21 08:14 51°13.821 2°36.866 -999 315 13.8 99900 100
2005-10-21 08:15 51°13.723 2°36.523 -999 312 13.8 99890 100
2005-10-21 08:16 51°13.626 2°36.178 -999 319 13.8 99880 100
2005-10-21 08:17 51°13.529 2°35.834 -999 40 13.9 99900 100
2005-10-21 08:18 51°13.431 2°35.491 -999 39 13.9 99890 100
2005-10-21 08:19 51°13.332 2°35.149 -999 316 13.9 99880 100
2005-10-21 08:20 51°13.234 2°34.806 -999 320 14 99880 100
2005-10-21 08:21 51°13.134 2°34.465 -999 318 14 99890 100
2005-10-21 08:22 51°13.035 2°34.125 -999 322 14 99890 100
2005-10-21 08:23 51°12.935 2°33.786 -999 318 14 99870 100
2005-10-21 08:24 51°12.834 2°33.447 -999 319 14 99880 100
2005-10-21 08:25 51°12.732 2°33.11 -999 321 14 99880 100
2005-10-21 08:26 51°12.629 2°32.772 -999 322 14.1 99870 100
2005-10-21 08:27 51°12.528 2°32.435 -999 41 14.1 99880 100
2005-10-21 08:28 51°12.435 2°32.091 -999 39 14.1 99870 100
2005-10-21 08:29 51°12.34 2°31.747 -999 318 14.1 99870 100
2005-10-21 08:30 51°12.245 2°31.402 -999 317 14.1 99860 100
2005-10-21 08:31 51°12.152 2°31.055 -999 319 14.1 99850 100
2005-10-21 08:32 51°12.057 2°30.707 -999 41 14.2 99850 100
2005-10-21 08:33 51°11.961 2°30.36 -999 320 14.2 99860 100
2005-10-21 08:34 51°11.866 2°30.011 -999 316 14.2 99840 100
2005-10-21 08:35 51°11.771 2°29.661 -999 316 14.2 99850 100
2005-10-21 08:36 51°11.679 2°29.307 -999 43 14.2 99850 100
2005-10-21 08:37 51°11.607 2°28.937 -999 310 14.2 99850 100
2005-10-21 08:38 51°11.537 2°28.563 -999 312 14.2 99850 100
2005-10-21 08:39 51°11.476 2°28.184 -999 306 14.2 99850 100
2005-10-21 08:40 51°11.423 2°27.798 -999 312 14.2 99850 100
2005-10-21 08:41 51°11.372 2°27.414 -999 311 14.2 99850 100
2005-10-21 08:42 51°11.322 2°27.033 -999 227 14.2 99850 100
2005-10-21 08:43 51°11.27 2°26.653 -999 311 14.2 99850 100
2005-10-21 08:44 51°11.22 2°26.273 -999 313 14.2 99840 100
2005-10-21 08:45 51°11.171 2°25.894 -999 309 14.2 99850 100
2005-10-21 08:46 51°11.177 2°25.518 -999 283 14.2 99850 100
2005-10-21 08:47 51°11.334 2°25.278 -999 197 14.2 99880 100
2005-10-21 08:48 51°11.536 2°25.237 -999 108 14.2 99890 100
2005-10-21 08:49 51°11.71 2°25.386 -999 97 14.3 99880 100
2005-10-21 08:50 51°11.871 2°25.57 -999 97 14.3 99870 100
2005-10-21 08:51 51°12.019 2°25.776 -999 111 14.3 99860 100
2005-10-21 08:52 51°12.167 2°25.985 -999 103 14.3 99860 100
2005-10-21 08:53 51°12.317 2°26.19 -999 101 14.3 99860 100
2005-10-21 08:54 51°12.469 2°26.393 -999 111 14.3 99860 100
2005-10-21 08:55 51°12.625 2°26.586 -999 109 14.4 99850 100
2005-10-21 08:56 51°12.779 2°26.784 -999 111 14.4 99850 100
2005-10-21 08:57 51°12.934 2°26.978 -999 100 14.4 99850 100
2005-10-21 08:58 51°13.09 2°27.171 -999 108 14.4 99840 100
2005-10-21 08:59 51°13.245 2°27.369 -999 107 14.4 99840 100
2005-10-21 09:00 51°13.397 2°27.571 -999 103 14.4 99840 100
2005-10-21 09:01 51°13.547 2°27.772 -999 114 14.4 99840 100
2005-10-21 09:02 51°13.698 2°27.977 -999 112 14.5 99830 100
2005-10-21 09:03 51°13.85 2°28.179 -999 114 14.5 99830 100
2005-10-21 09:04 51°14 2°28.384 -999 106 14.6 99820 99
2005-10-21 09:05 51°14.15 2°28.589 -999 110 14.6 99820 99
2005-10-21 09:06 51°14.3 2°28.796 -999 107 14.6 99830 99
2005-10-21 09:07 51°14.451 2°29.001 -999 110 14.6 99830 99
2005-10-21 09:08 51°14.601 2°29.204 -999 111 14.6 99830 99
2005-10-21 09:09 51°14.752 2°29.406 -999 105 14.6 99830 99
2005-10-21 09:10 51°14.905 2°29.605 -999 101 14.7 99830 99
2005-10-21 09:11 51°15.057 2°29.807 -999 110 14.7 99830 99
2005-10-21 09:12 51°15.21 2°30.004 -999 109 14.7 99830 99
2005-10-21 09:13 51°15.361 2°30.201 -999 109 14.7 99820 98
2005-10-21 09:14 51°15.51 2°30.404 -999 115 14.8 99820 98
2005-10-21 09:15 51°15.662 2°30.6 -999 105 14.8 99820 98
2005-10-21 09:16 51°15.813 2°30.795 -999 112 14.8 99820 98
2005-10-21 09:17 51°15.964 2°30.993 -999 116 14.8 99820 98
2005-10-21 09:18 51°16.114 2°31.19 -999 123 14.8 99820 98
2005-10-21 09:19 51°16.264 2°31.391 -999 115 14.9 99830 98
2005-10-21 09:20 51°16.415 2°31.592 -999 119 14.9 99820 97
2005-10-21 09:21 51°16.566 2°31.794 -999 120 14.9 99820 97
2005-10-21 09:22 51°16.715 2°31.999 -999 113 14.9 99830 97
2005-10-21 09:23 51°16.867 2°32.2 -999 114 14.9 99820 97
2005-10-21 09:24 51°17.018 2°32.398 -999 110 15 99820 97
2005-10-21 09:25 51°17.167 2°32.597 -999 116 15 99820 97
2005-10-21 09:26 51°17.319 2°32.798 -999 121 15 99830 97
2005-10-21 09:27 51°17.47 2°32.996 -999 114 15 99820 96
2005-10-21 09:28 51°17.619 2°33.189 -999 129 15 99820 96
2005-10-21 09:29 51°17.77 2°33.379 -999 109 15 99820 96
2005-10-21 09:30 51°17.922 2°33.571 -999 128 15 99820 96
2005-10-21 09:31 51°18.071 2°33.767 -999 120 15 99810 96
2005-10-21 09:32 51°18.221 2°33.959 -999 127 15.1 99830 96
2005-10-21 09:33 51°18.371 2°34.146 -999 118 15 99820 96
2005-10-21 09:34 51°18.519 2°34.338 -999 121 15.1 99820 96
2005-10-21 09:35 51°18.668 2°34.531 -999 118 15 99820 96
2005-10-21 09:36 51°18.817 2°34.724 -999 112 15 99810 96
2005-10-21 09:37 51°18.966 2°34.913 -999 116 15.1 99820 96
2005-10-21 09:38 51°19.114 2°35.108 -999 124 15 99810 95
2005-10-21 09:39 51°19.263 2°35.298 -999 115 15.1 99820 96
2005-10-21 09:40 51°19.411 2°35.487 -999 111 15 99820 96
2005-10-21 09:41 51°19.56 2°35.679 -999 119 15 99810 96
2005-10-21 09:42 51°19.709 2°35.872 -999 115 15 99810 96
2005-10-21 09:43 51°19.856 2°36.066 -999 117 15 99810 96
2005-10-21 09:44 51°20.006 2°36.254 -999 120 15 99810 95
2005-10-21 09:45 51°20.157 2°36.442 -999 119 15.1 99820 95
2005-10-21 09:46 51°20.306 2°36.641 -999 124 15.1 99810 95
2005-10-21 09:47 51°20.455 2°36.836 -999 120 15.1 99810 95
2005-10-21 09:48 51°20.55 2°37.087 -999 90 15.1 99790 95
2005-10-21 09:49 51°20.574 2°37.391 -999 85 15.1 99780 95
2005-10-21 09:50 51°20.595 2°37.7 -999 87 15.1 99770 95
2005-10-21 09:51 51°20.61 2°38.007 -999 85 15.1 99760 95
2005-10-21 09:52 51°20.621 2°38.316 -999 83 15.2 99770 95
2005-10-21 09:53 51°20.632 2°38.623 -999 83 15.2 99770 95
2005-10-21 09:54 51°20.629 2°38.932 -999 83 15.1 99770 95
2005-10-21 09:55 51°20.623 2°39.241 -999 78 15.2 99780 95
2005-10-21 09:56 51°20.619 2°39.555 -999 81 15.2 99770 95
2005-10-21 09:57 51°20.615 2°39.868 -999 83 15.2 99770 95
2005-10-21 09:58 51°20.613 2°40.181 -999 82 15.2 99760 95
2005-10-21 09:59 51°20.61 2°40.498 -999 80 15.2 99770 95
2005-10-21 10:00 51°20.611 2°40.809 -999 84 15.2 99760 95
2005-10-21 10:01 51°20.615 2°41.113 -999 82 15.2 99780 95
2005-10-21 10:02 51°20.618 2°41.422 -999 77 15.2 99770 95
2005-10-21 10:03 51°20.622 2°41.732 -999 82 15.2 99780 95
2005-10-21 10:04 51°20.621 2°42.042 -999 83 15.2 99770 95
2005-10-21 10:05 51°20.622 2°42.344 -999 77 15.2 99770 95
2005-10-21 10:06 51°20.62 2°42.646 -999 80 15.2 99780 95
2005-10-21 10:07 51°20.617 2°42.951 -999 84 15.3 99790 95
2005-10-21 10:08 51°20.615 2°43.254 -999 78 15.3 99780 94
2005-10-21 10:09 51°20.613 2°43.558 -999 82 15.3 99770 94
2005-10-21 10:10 51°20.611 2°43.865 -999 91 15.3 99790 94
2005-10-21 10:11 51°20.609 2°44.169 -999 86 15.3 99780 94
2005-10-21 10:12 51°20.607 2°44.478 -999 84 15.3 99790 94
2005-10-21 10:13 51°20.605 2°44.785 -999 81 15.4 99780 94
2005-10-21 10:14 51°20.605 2°45.092 -999 87 15.4 99790 94
2005-10-21 10:15 51°20.605 2°45.398 -999 83 15.4 99790 93
2005-10-21 10:16 51°20.6 2°45.704 -999 82 15.4 99780 93
2005-10-21 10:17 51°20.593 2°46.013 -999 82 15.4 99780 93
2005-10-21 10:18 51°20.586 2°46.322 -999 83 15.4 99780 93
2005-10-21 10:19 51°20.58 2°46.634 -999 76 15.4 99770 93
2005-10-21 10:20 51°20.572 2°46.944 -999 82 15.4 99770 93
2005-10-21 10:21 51°20.562 2°47.253 -999 82 15.4 99780 93
2005-10-21 10:22 51°20.554 2°47.562 -999 79 15.4 99780 93
2005-10-21 10:23 51°20.543 2°47.87 -999 83 15.4 99780 93
2005-10-21 10:24 51°20.532 2°48.178 -999 78 15.5 99770 92
2005-10-21 10:25 51°20.445 2°48.452 -999 57 15.4 99770 92
2005-10-21 10:26 51°20.262 2°48.603 12.9 29 15.5 99780 92
2005-10-21 10:27 51°20.037 2°48.567 12.8 360 15.5 99790 92
2005-10-21 10:28 51°19.833 2°48.369 18.1 351 15.6 99770 92
2005-10-21 10:29 51°19.642 2°48.134 18.5 353 15.7 99770 91
2005-10-21 10:30 51°19.45 2°47.898 17.4 347 15.7 99760 91
2005-10-21 10:31 51°19.26 2°47.666 0.1 352 15.7 99740 90
2005-10-21 10:32 51°19.071 2°47.433 -999 351 15.8 99760 90
2005-10-21 10:33 51°18.883 2°47.199 -999 351 15.8 99750 90
2005-10-21 10:34 51°18.692 2°46.969 -999 356 15.8 99770 90
2005-10-21 10:35 51°18.504 2°46.741 -999 350 15.8 99780 90
2005-10-21 10:36 51°18.316 2°46.511 -999 351 15.8 99770 90
2005-10-21 10:37 51°18.127 2°46.279 -999 348 15.8 99780 90
2005-10-21 10:38 51°17.94 2°46.049 -999 352 15.8 99780 89
2005-10-21 10:39 51°17.754 2°45.823 -999 349 15.9 99770 89
2005-10-21 10:40 51°17.567 2°45.596 -999 353 15.9 99770 89
2005-10-21 10:41 51°17.381 2°45.371 -999 349 15.9 99770 89
2005-10-21 10:42 51°17.195 2°45.146 -999 351 16 99790 88
2005-10-21 10:43 51°17.01 2°44.923 -999 348 16 99770 87
2005-10-21 10:44 51°16.826 2°44.701 -999 346 16.1 99760 87
2005-10-21 10:45 51°16.642 2°44.479 -999 344 16.1 99770 86
2005-10-21 10:46 51°16.457 2°44.265 -999 353 16.1 99750 86
2005-10-21 10:47 51°16.263 2°44.071 -999 4 16.1 99760 86
2005-10-21 10:48 51°16.046 2°43.964 -999 11 16.2 99790 85
2005-10-21 10:49 51°15.827 2°43.98 -999 39 16.2 99790 85
2005-10-21 10:50 51°15.696 2°44.226 -999 74 16.2 99730 84
2005-10-21 10:51 51°15.67 2°44.552 -999 81 16.1 99770 85
2005-10-21 10:52 51°15.656 2°44.88 -999 93 16.1 99780 85
2005-10-21 10:53 51°15.642 2°45.215 -999 84 16.1 99780 85
2005-10-21 10:54 51°15.627 2°45.548 -999 84 16.1 99780 85
2005-10-21 10:55 51°15.62 2°45.879 -999 84 16.1 99780 86
2005-10-21 10:56 51°15.612 2°46.213 -999 79 16.1 99800 86
2005-10-21 10:57 51°15.606 2°46.544 -999 93 16 99780 86
2005-10-21 10:58 51°15.598 2°46.872 -999 82 16 99790 87
2005-10-21 10:59 51°15.591 2°47.198 -999 84 16 99780 87
2005-10-21 11:00 51°15.582 2°47.525 -999 90 16 99780 87
2005-10-21 11:01 51°15.573 2°47.852 -999 87 16 99780 86
2005-10-21 11:02 51°15.562 2°48.179 -999 84 16 99780 86
2005-10-21 11:03 51°15.55 2°48.509 -999 81 16 99780 86
2005-10-21 11:04 51°15.54 2°48.84 -999 90 16 99790 86
2005-10-21 11:05 51°15.532 2°49.175 -999 88 16 99790 86
2005-10-21 11:06 51°15.524 2°49.513 -999 78 16 99800 86
2005-10-21 11:07 51°15.516 2°49.848 -999 82 16 99790 86
2005-10-21 11:08 51°15.507 2°50.183 -999 91 16 99780 86
2005-10-21 11:09 51°15.499 2°50.518 -999 80 16 99790 85
2005-10-21 11:10 51°15.473 2°50.848 -999 79 16 99790 85
2005-10-21 11:11 51°15.443 2°51.179 -999 76 16 99790 86
2005-10-21 11:12 51°15.364 2°51.488 -999 64 16 99780 85
2005-10-21 11:13 51°15.252 2°51.766 -999 60 16 99780 85
2005-10-21 11:14 51°15.14 2°52.044 -999 69 16.1 99760 85
2005-10-21 11:15 51°15.047 2°52.338 -999 70 16.1 99770 85
2005-10-21 11:16 51°14.961 2°52.641 -999 67 16.1 99790 85
2005-10-21 11:17 51°14.876 2°52.943 -999 64 16.1 99780 84
2005-10-21 11:18 51°14.788 2°53.245 -999 72 16.1 99790 85
2005-10-21 11:19 51°14.706 2°53.545 -999 68 16.2 99780 84
2005-10-21 11:20 51°14.637 2°53.809 -999 78 16.2 99790 84
2005-10-21 11:21 51°14.571 2°54.128 -999 71 16.2 99770 84
2005-10-21 11:22 51°14.504 2°54.444 -999 80 16.2 99780 84
2005-10-21 11:23 51°14.437 2°54.762 -999 68 16.3 99800 83
2005-10-21 11:24 51°14.355 2°55.067 -999 44 16.3 99770 83
2005-10-21 11:25 51°14.233 2°55.307 -999 22 16.3 99800 83
2005-10-21 11:26 51°14.102 2°55.43 -999 40 16.4 99810 83
2005-10-21 11:27 51°13.991 2°55.511 -999 38 16.5 99810 82
2005-10-21 11:28 51°13.871 2°55.601 -999 26 16.5 99800 82
2005-10-21 11:29 51°13.764 2°55.707 -999 22 16.6 99800 82
2005-10-21 11:30 51°13.695 2°55.827 -999 55 16.6 99820 81
2005-10-21 11:31 51°13.643 2°55.942 -999 47 16.6 99820 81
2005-10-21 11:32 51°13.616 2°56.042 -999 75 16.6 99810 82
2005-10-21 11:33 51°13.607 2°56.087 -999 64 16.5 99800 81
2005-10-21 11:34 51°13.601 2°56.099 -999 105 16.5 99810 81